Time;durP1;ratioP1;P1;durP2;ratioP2;P2;SDS_P1;SDS_P2;PMS_P1;PMS_P2;Temp;Humidity;BMP_temperature;BMP_pressure;BME280_temperature;BME280_humidity;BME280_pressure;Samples;Min_cycle;Max_cycle;Signal;HPM_P1;HPM_P2
2023/11/24 00:00:41;;;;;;;21.50;3.28;;;8.00;99.90;;;;;;5010452;28;20033;-93
2023/11/24 00:03:07;;;;;;;29.50;3.92;;;7.90;99.90;;;;;;5013873;28;20031;-92
2023/11/24 00:05:33;;;;;;;22.27;3.13;;;7.90;99.90;;;;;;5010523;28;20050;-91
2023/11/24 00:07:58;;;;;;;17.52;3.10;;;7.80;99.90;;;;;;5003619;28;20029;-93
2023/11/24 00:10:28;;;;;;;18.90;3.22;;;7.80;99.90;;;;;;5003062;28;20102;-94
2023/11/24 00:12:54;;;;;;;23.25;3.00;;;7.80;99.90;;;;;;5002440;28;20017;-93
2023/11/24 00:15:20;;;;;;;14.63;2.13;;;7.80;99.90;;;;;;5001945;28;20034;-95
2023/11/24 00:17:46;;;;;;;30.13;3.17;;;7.80;99.90;;;;;;5019220;28;20125;-94
2023/11/24 00:20:14;;;;;;;21.52;3.08;;;7.70;99.90;;;;;;5002636;28;20026;-91
2023/11/24 00:22:40;;;;;;;23.63;4.03;;;7.70;99.90;;;;;;5001610;28;20030;-92
2023/11/24 00:25:07;;;;;;;21.42;2.90;;;7.70;99.90;;;;;;5002747;28;20026;-92
2023/11/24 00:27:33;;;;;;;18.35;2.67;;;7.70;99.90;;;;;;5001049;28;20026;-94
2023/11/24 00:29:59;;;;;;;22.48;3.35;;;7.60;99.90;;;;;;4982694;28;20102;-92
2023/11/24 00:32:25;;;;;;;25.60;2.85;;;7.60;99.90;;;;;;5001361;28;20022;-94
2023/11/24 00:34:50;;;;;;;23.05;3.85;;;7.60;99.90;;;;;;5000036;28;20053;-93
2023/11/24 00:37:17;;;;;;;32.67;4.07;;;7.60;99.90;;;;;;5000323;28;20042;-92
2023/11/24 00:39:44;;;;;;;24.00;3.40;;;7.60;99.90;;;;;;5000867;28;20026;-93
2023/11/24 00:42:10;;;;;;;20.33;3.42;;;7.60;99.90;;;;;;5001257;28;20014;-93
2023/11/24 00:44:36;;;;;;;21.50;4.00;;;7.60;99.90;;;;;;5034175;28;20021;-94
2023/11/24 00:47:02;;;;;;;21.00;2.97;;;7.60;99.90;;;;;;5034412;28;20029;-92
2023/11/24 00:49:28;;;;;;;30.25;3.03;;;7.60;99.90;;;;;;5015879;28;20069;-92
2023/11/24 00:51:54;;;;;;;31.17;5.25;;;7.60;99.90;;;;;;5000928;28;20018;-92
2023/11/24 00:54:19;;;;;;;23.58;2.53;;;7.50;99.90;;;;;;4998830;28;20046;-93
2023/11/24 00:56:45;;;;;;;27.08;3.28;;;7.50;99.90;;;;;;5015146;28;20022;-94
2023/11/24 00:59:11;;;;;;;24.13;3.17;;;7.40;99.90;;;;;;5017207;28;20034;-95
2023/11/24 01:01:37;;;;;;;25.83;3.00;;;7.40;99.90;;;;;;4996692;28;20034;-94
2023/11/24 01:04:04;;;;;;;23.05;2.85;;;7.40;99.90;;;;;;5014842;28;20042;-93
2023/11/24 01:06:29;;;;;;;21.85;2.90;;;7.40;99.90;;;;;;5013851;28;20022;-93
2023/11/24 01:08:55;;;;;;;21.65;3.38;;;7.40;99.90;;;;;;5007567;28;20021;-95
2023/11/24 01:11:21;;;;;;;27.83;4.30;;;7.40;99.90;;;;;;4999924;28;20060;-93
2023/11/24 01:13:46;;;;;;;23.67;4.28;;;7.40;99.90;;;;;;4998725;28;20077;-95
2023/11/24 01:16:12;;;;;;;19.60;2.35;;;7.40;99.90;;;;;;4999081;28;20050;-94
2023/11/24 01:18:39;;;;;;;20.75;2.70;;;7.30;99.90;;;;;;4998611;28;20034;-96
2023/11/24 01:21:07;;;;;;;14.82;2.53;;;7.30;99.90;;;;;;4997099;28;20040;-96
2023/11/24 01:23:35;;;;;;;13.48;2.78;;;7.30;99.90;;;;;;4999431;28;20050;-95
2023/11/24 01:26:03;;;;;;;12.45;2.00;;;7.20;99.90;;;;;;4999989;28;20058;-94
2023/11/24 01:28:28;;;;;;;19.02;2.30;;;7.20;99.90;;;;;;4999645;28;20173;-95
2023/11/24 01:30:54;;;;;;;16.50;2.47;;;7.20;99.90;;;;;;4999300;28;20019;-93
2023/11/24 01:33:20;;;;;;;20.52;2.72;;;7.20;99.90;;;;;;4999474;28;20050;-91
2023/11/24 01:35:46;;;;;;;19.80;2.92;;;7.10;99.90;;;;;;5000457;28;20022;-94
2023/11/24 01:38:12;;;;;;;16.83;2.17;;;7.10;99.90;;;;;;4998446;28;20042;-94
2023/11/24 01:40:38;;;;;;;16.92;3.33;;;7.10;99.90;;;;;;4999398;28;20030;-96
2023/11/24 01:43:04;;;;;;;17.83;2.35;;;7.00;99.90;;;;;;4997413;28;20007;-94
2023/11/24 01:45:30;;;;;;;16.33;2.22;;;7.00;99.90;;;;;;4997783;28;20050;-95
2023/11/24 01:47:56;;;;;;;17.05;2.38;;;7.00;99.90;;;;;;4980828;28;20022;-94
2023/11/24 01:50:23;;;;;;;16.00;2.53;;;6.90;99.90;;;;;;4999243;28;20057;-92
2023/11/24 01:52:49;;;;;;;16.80;2.00;;;6.90;99.90;;;;;;4999929;28;20023;-94
2023/11/24 01:55:16;;;;;;;14.80;1.85;;;6.90;99.90;;;;;;4996484;28;20042;-94
2023/11/24 01:57:42;;;;;;;13.98;1.80;;;6.90;99.90;;;;;;4996759;28;20050;-94
2023/11/24 02:00:13;;;;;;;12.73;2.10;;;6.90;99.90;;;;;;4997635;28;20010;-93
2023/11/24 02:02:42;;;;;;;12.43;2.65;;;6.80;99.90;;;;;;4982464;28;20014;-94
2023/11/24 02:05:10;;;;;;;17.45;2.40;;;6.80;99.90;;;;;;5000196;28;20038;-94
2023/11/24 02:07:36;;;;;;;16.65;2.58;;;6.80;99.90;;;;;;4999738;28;20038;-95
2023/11/24 02:10:06;;;;;;;17.17;2.33;;;6.70;99.90;;;;;;4998975;28;20050;-94
2023/11/24 02:12:31;;;;;;;12.90;1.83;;;6.70;99.90;;;;;;4997780;28;20021;-95
2023/11/24 02:14:57;;;;;;;14.93;1.90;;;6.80;99.90;;;;;;4998959;28;20047;-93
2023/11/24 02:17:23;;;;;;;23.60;2.47;;;6.70;99.90;;;;;;4998205;28;20042;-95
2023/11/24 02:19:48;;;;;;;16.70;3.42;;;6.70;99.90;;;;;;4999699;28;20044;-95
2023/11/24 02:22:17;;;;;;;13.75;2.47;;;6.70;99.90;;;;;;4998360;28;20095;-93
2023/11/24 02:24:43;;;;;;;10.57;1.88;;;6.70;99.90;;;;;;4997030;28;20245;-91
2023/11/24 02:27:10;;;;;;;11.90;2.05;;;6.70;99.90;;;;;;4998442;28;20090;-93
2023/11/24 02:29:37;;;;;;;13.20;2.28;;;6.70;99.90;;;;;;4998402;28;20022;-96
2023/11/24 02:32:02;;;;;;;15.23;2.85;;;6.60;99.90;;;;;;4997663;28;20023;-93
2023/11/24 02:34:31;;;;;;;19.33;2.40;;;6.60;99.90;;;;;;4998834;28;20030;-92
2023/11/24 02:36:57;;;;;;;22.40;2.80;;;6.70;99.90;;;;;;4999607;28;20038;-94
2023/11/24 02:39:22;;;;;;;16.50;3.22;;;6.70;99.90;;;;;;5000387;28;20027;-94
2023/11/24 02:41:48;;;;;;;14.50;2.60;;;6.60;99.90;;;;;;4998304;28;20030;-95
2023/11/24 02:44:14;;;;;;;15.95;1.80;;;6.60;99.90;;;;;;4998196;28;20030;-94
2023/11/24 02:46:40;;;;;;;13.15;2.70;;;6.60;99.90;;;;;;4997161;28;20038;-95
2023/11/24 02:49:06;;;;;;;18.50;2.35;;;6.60;99.90;;;;;;4993857;28;20027;-94
2023/11/24 02:51:32;;;;;;;15.60;2.50;;;6.60;99.90;;;;;;4997033;28;20042;-94
2023/11/24 02:53:59;;;;;;;15.88;3.05;;;6.60;99.90;;;;;;4999396;28;20037;-95
2023/11/24 02:56:26;;;;;;;14.52;1.98;;;6.60;99.90;;;;;;4999457;28;20022;-94
2023/11/24 02:58:52;;;;;;;12.02;1.85;;;6.60;99.90;;;;;;5016415;28;20018;-94
2023/11/24 03:01:18;;;;;;;17.95;2.30;;;6.60;99.90;;;;;;5018433;28;20014;-93
2023/11/24 03:03:45;;;;;;;15.48;2.38;;;6.60;99.90;;;;;;5000088;28;20030;-95
2023/11/24 03:06:12;;;;;;;13.98;1.52;;;6.50;99.90;;;;;;4993771;28;20018;-94
2023/11/24 03:08:39;;;;;;;12.75;2.33;;;6.50;99.90;;;;;;4996037;28;20030;-95
2023/11/24 03:11:05;;;;;;;14.82;2.03;;;6.50;99.90;;;;;;5002206;28;20024;-92
2023/11/24 03:13:34;;;;;;;16.27;2.47;;;6.50;99.90;;;;;;5002253;28;20061;-95
2023/11/24 03:16:01;;;;;;;20.95;4.03;;;6.60;99.90;;;;;;5000741;28;20053;-96
2023/11/24 03:18:28;;;;;;;18.13;2.50;;;6.60;99.90;;;;;;4999487;28;20014;-94
2023/11/24 03:20:54;;;;;;;14.68;2.03;;;6.60;99.90;;;;;;5003630;28;20018;-94
2023/11/24 03:23:23;;;;;;;13.50;3.03;;;6.60;99.90;;;;;;5003104;28;20011;-91
2023/11/24 03:25:49;;;;;;;18.05;1.95;;;6.60;99.90;;;;;;5003239;28;20022;-90
2023/11/24 03:28:16;;;;;;;18.42;2.25;;;6.60;99.90;;;;;;5004087;28;20014;-91
2023/11/24 03:30:42;;;;;;;15.18;2.33;;;6.60;99.90;;;;;;5003508;28;20037;-93
2023/11/24 03:33:09;;;;;;;23.27;2.42;;;6.60;99.90;;;;;;5003103;28;20010;-94
2023/11/24 03:35:35;;;;;;;17.80;2.03;;;6.60;99.90;;;;;;5003216;28;20046;-91
2023/11/24 03:38:01;;;;;;;21.50;2.92;;;6.60;99.90;;;;;;5001900;28;20037;-93
2023/11/24 03:40:27;;;;;;;11.38;1.65;;;6.60;99.90;;;;;;4999590;28;20144;-96
2023/11/24 03:42:53;;;;;;;16.27;2.40;;;6.70;99.90;;;;;;5000109;28;20258;-93
2023/11/24 03:45:18;;;;;;;17.30;1.85;;;6.70;99.90;;;;;;5000056;28;20038;-93
2023/11/24 03:47:44;;;;;;;21.30;2.67;;;6.70;99.90;;;;;;5001936;28;20067;-91
2023/11/24 03:50:10;;;;;;;13.35;2.13;;;6.70;99.90;;;;;;5001809;28;20034;-93
2023/11/24 03:52:36;;;;;;;17.58;2.28;;;6.60;99.90;;;;;;5002880;28;20026;-95
2023/11/24 03:55:03;;;;;;;14.07;2.40;;;6.60;99.90;;;;;;5002354;28;20053;-94
2023/11/24 03:57:29;;;;;;;13.35;2.45;;;6.60;99.90;;;;;;5001322;28;20061;-91
2023/11/24 03:59:55;;;;;;;20.83;2.40;;;6.60;99.90;;;;;;5001264;28;20026;-92
2023/11/24 04:02:20;;;;;;;21.52;2.30;;;6.60;99.90;;;;;;5001761;28;20038;-94
2023/11/24 04:04:46;;;;;;;14.85;2.50;;;6.60;99.90;;;;;;5001443;28;20053;-94
2023/11/24 04:07:13;;;;;;;10.60;1.50;;;6.50;99.90;;;;;;5002130;28;20069;-92
2023/11/24 04:09:39;;;;;;;11.50;2.10;;;6.50;99.90;;;;;;5002545;28;20022;-91
2023/11/24 04:12:05;;;;;;;9.75;2.00;;;6.50;99.90;;;;;;5002425;28;20049;-90
2023/11/24 04:14:30;;;;;;;13.88;2.30;;;6.40;99.90;;;;;;5002480;28;20034;-93
2023/11/24 04:16:56;;;;;;;18.67;2.45;;;6.40;99.90;;;;;;5019338;28;20038;-91
2023/11/24 04:19:22;;;;;;;13.85;1.80;;;6.40;99.90;;;;;;5002808;28;20018;-91
2023/11/24 04:21:47;;;;;;;8.85;1.75;;;6.40;99.90;;;;;;5002108;28;20050;-90
2023/11/24 04:24:13;;;;;;;15.45;1.95;;;6.40;99.90;;;;;;5002435;28;20014;-91
2023/11/24 04:26:39;;;;;;;15.45;1.98;;;6.40;99.90;;;;;;5002089;28;20029;-91
2023/11/24 04:29:05;;;;;;;8.88;1.25;;;6.40;99.90;;;;;;5002261;28;20019;-92
2023/11/24 04:31:31;;;;;;;16.33;2.22;;;6.30;99.90;;;;;;5002254;28;20033;-88
2023/11/24 04:33:57;;;;;;;14.27;2.20;;;6.30;99.90;;;;;;5001321;28;20038;-96
2023/11/24 04:36:23;;;;;;;10.95;1.80;;;6.40;99.90;;;;;;5000290;28;20042;-94
2023/11/24 04:38:49;;;;;;;14.50;2.10;;;6.40;99.90;;;;;;4998109;28;20026;-93
2023/11/24 04:41:15;;;;;;;22.58;4.00;;;6.30;99.90;;;;;;5001154;28;20026;-92
2023/11/24 04:43:41;;;;;;;21.42;4.78;;;6.30;99.90;;;;;;5002187;28;20033;-91
2023/11/24 04:46:08;;;;;;;12.15;2.03;;;6.30;99.90;;;;;;5001409;28;20019;-94
2023/11/24 04:48:35;;;;;;;17.27;2.10;;;6.30;99.90;;;;;;5001720;28;20023;-93
2023/11/24 04:51:01;;;;;;;16.20;1.83;;;6.20;99.90;;;;;;5001825;28;20082;-91
2023/11/24 04:53:26;;;;;;;12.48;2.78;;;6.20;99.90;;;;;;5002094;28;20043;-93
2023/11/24 04:55:53;;;;;;;15.27;2.17;;;6.20;99.90;;;;;;5001482;28;20039;-91
2023/11/24 04:58:18;;;;;;;23.08;2.50;;;6.10;99.90;;;;;;5001974;28;20110;-93
2023/11/24 05:00:44;;;;;;;17.45;2.20;;;6.10;99.90;;;;;;5001835;28;20010;-92
2023/11/24 05:03:10;;;;;;;11.88;1.80;;;6.10;99.90;;;;;;5001889;28;20034;-92
2023/11/24 05:05:38;;;;;;;22.40;3.17;;;6.00;99.90;;;;;;5001988;28;20023;-91
2023/11/24 05:08:04;;;;;;;15.45;3.28;;;6.00;99.90;;;;;;5002220;28;20003;-93
2023/11/24 05:10:30;;;;;;;17.08;3.05;;;6.00;99.90;;;;;;5001510;28;20048;-92
2023/11/24 05:12:56;;;;;;;12.88;2.22;;;6.00;99.90;;;;;;5001941;28;20047;-93
2023/11/24 05:15:21;;;;;;;8.32;1.73;;;5.90;99.90;;;;;;5000670;28;20126;-92
2023/11/24 05:17:47;;;;;;;11.63;2.20;;;5.90;99.90;;;;;;5001438;28;20029;-93
2023/11/24 05:20:14;;;;;;;12.82;1.90;;;5.80;99.90;;;;;;5001191;28;20022;-91
2023/11/24 05:22:40;;;;;;;12.73;1.60;;;5.80;99.90;;;;;;5001233;28;20015;-93
2023/11/24 05:25:07;;;;;;;12.98;2.13;;;5.80;99.90;;;;;;5001529;28;20029;-91
2023/11/24 05:27:33;;;;;;;12.75;1.80;;;5.80;99.90;;;;;;5000860;28;20337;-91
2023/11/24 05:29:59;;;;;;;9.60;1.60;;;5.80;99.90;;;;;;4983783;28;20034;-90
2023/11/24 05:32:24;;;;;;;15.18;2.28;;;5.70;99.90;;;;;;5001332;28;20011;-91
2023/11/24 05:34:53;;;;;;;17.33;1.92;;;5.70;99.90;;;;;;5000934;28;20094;-90
2023/11/24 05:37:19;;;;;;;10.60;1.23;;;5.70;99.90;;;;;;5001206;28;20030;-91
2023/11/24 05:39:45;;;;;;;14.00;1.77;;;5.60;99.90;;;;;;5001235;28;20037;-91
2023/11/24 05:42:11;;;;;;;10.02;1.60;;;5.60;99.90;;;;;;5014675;28;20026;-90
2023/11/24 05:44:38;;;;;;;11.98;1.95;;;5.60;99.90;;;;;;5000947;28;20022;-92
2023/11/24 05:47:04;;;;;;;11.63;1.80;;;5.50;99.90;;;;;;5001096;28;20006;-91
2023/11/24 05:49:32;;;;;;;13.00;1.65;;;5.50;99.90;;;;;;5000475;28;20045;-91
2023/11/24 05:51:57;;;;;;;12.20;2.22;;;5.50;99.90;;;;;;4998983;28;20034;-93
2023/11/24 05:54:23;;;;;;;15.20;2.17;;;5.50;99.90;;;;;;4999366;28;20033;-92
2023/11/24 05:56:49;;;;;;;8.18;1.23;;;5.40;99.90;;;;;;5000653;28;20014;-92
2023/11/24 05:59:17;;;;;;;8.60;2.10;;;5.40;99.90;;;;;;5001314;28;20018;-93
2023/11/24 06:01:45;;;;;;;10.25;2.05;;;5.30;99.90;;;;;;5018150;28;20039;-91
2023/11/24 06:04:14;;;;;;;10.00;1.42;;;5.30;99.90;;;;;;5001040;28;20033;-92
2023/11/24 06:06:40;;;;;;;10.70;1.48;;;5.20;99.90;;;;;;4984949;28;20030;-91
2023/11/24 06:09:08;;;;;;;16.35;1.65;;;5.20;99.90;;;;;;5001447;28;20026;-91
2023/11/24 06:11:33;;;;;;;16.42;1.50;;;5.20;99.90;;;;;;5017414;28;20022;-93
2023/11/24 06:13:59;;;;;;;10.75;1.80;;;5.20;99.90;;;;;;5017098;28;20042;-92
2023/11/24 06:16:25;;;;;;;19.25;3.05;;;5.20;99.90;;;;;;5000956;28;20055;-93
2023/11/24 06:18:50;;;;;;;15.20;1.58;;;5.20;99.90;;;;;;5000469;28;20019;-91
2023/11/24 06:21:16;;;;;;;15.10;2.42;;;5.10;99.90;;;;;;5000248;28;20126;-91
2023/11/24 06:23:46;;;;;;;15.68;2.15;;;5.20;99.90;;;;;;5000587;28;20038;-91
2023/11/24 06:26:12;;;;;;;8.00;1.45;;;5.10;99.90;;;;;;5000580;28;20014;-92
2023/11/24 06:28:44;;;;;;;12.85;1.40;;;5.20;99.90;;;;;;5004283;28;20041;-91
2023/11/24 06:31:14;;;;;;;8.02;1.88;;;5.20;99.90;;;;;;5004490;28;20010;-91
2023/11/24 06:33:40;;;;;;;11.02;1.55;;;5.20;99.90;;;;;;5004333;28;20023;-93
2023/11/24 06:36:07;;;;;;;7.10;1.55;;;5.20;99.90;;;;;;5004210;28;20074;-91
2023/11/24 06:38:33;;;;;;;12.15;1.83;;;5.20;99.90;;;;;;5020841;28;20022;-92
2023/11/24 06:40:59;;;;;;;9.35;1.40;;;5.20;99.90;;;;;;5004510;28;20026;-91
2023/11/24 06:43:25;;;;;;;12.68;1.30;;;5.20;99.90;;;;;;5004404;28;20042;-92
2023/11/24 06:45:51;;;;;;;20.35;2.17;;;5.20;99.90;;;;;;5021305;28;20082;-93
2023/11/24 06:48:17;;;;;;;14.48;1.95;;;5.20;99.90;;;;;;5004447;28;20011;-93
2023/11/24 06:50:43;;;;;;;18.52;3.50;;;5.20;99.90;;;;;;5004338;28;20046;-94
2023/11/24 06:53:08;;;;;;;9.15;1.33;;;5.20;99.90;;;;;;5004363;28;20053;-93
2023/11/24 06:55:34;;;;;;;7.53;2.15;;;5.20;99.90;;;;;;5004322;28;20022;-92
2023/11/24 06:58:00;;;;;;;11.82;1.48;;;5.20;99.90;;;;;;5004269;28;20015;-92
2023/11/24 07:00:25;;;;;;;13.30;1.50;;;5.20;99.90;;;;;;5003853;28;20022;-92
2023/11/24 07:02:51;;;;;;;7.25;1.52;;;5.20;99.90;;;;;;5003455;28;20019;-92
2023/11/24 07:05:17;;;;;;;11.38;1.48;;;5.20;99.90;;;;;;5004130;28;20089;-94
2023/11/24 07:07:43;;;;;;;9.50;1.48;;;5.20;99.90;;;;;;5003731;28;20037;-94
2023/11/24 07:10:13;;;;;;;13.43;1.40;;;5.20;99.90;;;;;;5003925;28;20105;-92
2023/11/24 07:12:51;;;;;;;8.57;1.45;;;5.20;99.90;;;;;;5002642;28;20006;-92
2023/11/24 07:15:18;;;;;;;7.47;1.45;;;5.10;99.90;;;;;;5000764;28;20030;-93
2023/11/24 07:17:44;;;;;;;12.25;1.30;;;5.20;99.90;;;;;;4996683;28;20022;-92
2023/11/24 07:20:13;;;;;;;7.88;2.10;;;5.20;99.90;;;;;;4996091;28;20034;-93
2023/11/24 07:22:41;;;;;;;4.55;0.85;;;5.20;99.90;;;;;;4994738;28;20139;-93
2023/11/24 07:25:07;;;;;;;12.70;1.63;;;5.10;99.90;;;;;;4967564;28;20011;-93
2023/11/24 07:27:33;;;;;;;6.47;0.98;;;5.20;99.90;;;;;;4988869;28;20034;-95
2023/11/24 07:29:59;;;;;;;11.63;1.50;;;5.20;99.90;;;;;;4990415;28;20015;-93
2023/11/24 07:32:28;;;;;;;9.68;0.90;;;5.20;99.90;;;;;;4983399;28;20019;-94
2023/11/24 07:34:54;;;;;;;10.45;1.33;;;5.20;99.90;;;;;;5008524;28;20048;-92
2023/11/24 07:37:21;;;;;;;8.27;1.60;;;5.20;99.90;;;;;;5001186;28;20013;-91
2023/11/24 07:39:47;;;;;;;9.52;1.42;;;5.20;99.90;;;;;;5002026;28;20177;-93
2023/11/24 07:42:12;;;;;;;10.93;1.25;;;5.20;99.90;;;;;;5016442;28;20022;-92
2023/11/24 07:44:42;;;;;;;5.53;0.60;;;5.20;99.90;;;;;;5019487;28;20017;-92
2023/11/24 07:47:09;;;;;;;4.85;0.73;;;5.20;99.90;;;;;;5002388;28;20046;-91
2023/11/24 07:49:35;;;;;;;4.82;0.65;;;5.20;99.90;;;;;;5003124;28;20015;-91
2023/11/24 07:52:01;;;;;;;4.47;0.90;;;5.20;99.90;;;;;;5003498;28;20093;-92
2023/11/24 07:54:26;;;;;;;4.70;0.80;;;5.10;99.90;;;;;;5002615;28;20031;-92
2023/11/24 07:56:52;;;;;;;9.60;0.93;;;5.10;99.90;;;;;;5003027;28;20010;-90
2023/11/24 07:59:18;;;;;;;6.40;0.90;;;5.10;99.90;;;;;;5002698;28;20021;-91
2023/11/24 08:01:45;;;;;;;6.88;1.23;;;5.00;99.90;;;;;;4998826;28;20042;-92
2023/11/24 08:04:11;;;;;;;8.48;1.05;;;5.00;99.90;;;;;;4994993;28;20019;-91
2023/11/24 08:06:38;;;;;;;8.65;0.88;;;5.00;99.90;;;;;;4988597;28;20083;-94
2023/11/24 08:09:07;;;;;;;5.88;1.55;;;4.90;99.90;;;;;;4991994;28;20019;-91
2023/11/24 08:11:36;;;;;;;9.30;1.30;;;4.90;99.90;;;;;;4994088;28;20095;-91
2023/11/24 08:14:02;;;;;;;3.28;0.75;;;4.80;99.90;;;;;;4992846;28;20034;-91
2023/11/24 08:16:28;;;;;;;6.32;0.80;;;4.80;99.90;;;;;;4997917;28;20034;-91
2023/11/24 08:18:54;;;;;;;6.40;0.90;;;4.80;99.90;;;;;;4984702;28;20033;-91
2023/11/24 08:21:19;;;;;;;9.50;1.38;;;4.70;99.90;;;;;;5001353;28;20010;-91
2023/11/24 08:23:46;;;;;;;5.13;0.80;;;4.70;99.90;;;;;;5001363;28;20049;-92
2023/11/24 08:26:18;;;;;;;3.25;0.82;;;4.70;99.90;;;;;;5010425;28;20038;-91
2023/11/24 08:28:45;;;;;;;5.82;1.20;;;4.70;99.90;;;;;;4998129;28;20022;-93
2023/11/24 08:31:19;;;;;;;3.20;0.70;;;4.70;99.90;;;;;;5001202;28;20092;-92
2023/11/24 08:33:45;;;;;;;3.13;0.50;;;4.70;99.90;;;;;;4991689;28;20069;-90
2023/11/24 08:36:15;;;;;;;4.07;0.70;;;4.70;99.90;;;;;;4999372;28;20029;-93
2023/11/24 08:38:41;;;;;;;3.97;0.80;;;4.70;99.90;;;;;;5002302;28;20042;-93
2023/11/24 08:41:16;;;;;;;2.25;1.00;;;4.70;99.90;;;;;;5002171;28;20289;-91
2023/11/24 08:43:43;;;;;;;2.72;0.60;;;4.80;99.90;;;;;;5001986;28;20026;-91
2023/11/24 08:46:09;;;;;;;3.80;0.80;;;4.80;99.90;;;;;;5001789;28;20011;-93
2023/11/24 08:48:39;;;;;;;2.50;0.57;;;4.80;99.90;;;;;;4999915;28;20094;-92
2023/11/24 08:51:07;;;;;;;4.97;0.82;;;4.80;99.90;;;;;;4996608;28;20015;-90
2023/11/24 08:53:34;;;;;;;4.53;0.80;;;4.90;99.90;;;;;;5000122;28;20054;-90
2023/11/24 08:56:01;;;;;;;2.92;0.80;;;4.90;99.90;;;;;;5001237;28;20026;-90
2023/11/24 08:58:27;;;;;;;5.75;1.00;;;4.90;99.90;;;;;;4994351;28;20023;-91
2023/11/24 09:00:53;;;;;;;10.43;0.80;;;4.90;99.90;;;;;;4988313;28;20034;-90
2023/11/24 09:03:24;;;;;;;6.25;0.75;;;4.90;99.90;;;;;;5018327;28;20029;-92
2023/11/24 09:05:53;;;;;;;;;;;4.90;99.90;;;;;;5001713;28;20021;-89
2023/11/24 09:08:19;;;;;;;4.03;0.50;;;5.00;99.90;;;;;;5001300;28;19929;-90
2023/11/24 09:10:46;;;;;;;4.63;1.10;;;5.10;99.90;;;;;;5000930;28;20077;-90
2023/11/24 09:13:13;;;;;;;9.63;1.30;;;5.20;99.90;;;;;;5001575;28;20026;-90
2023/11/24 09:15:43;;;;;;;8.93;0.80;;;5.30;99.90;;;;;;5001267;28;20062;-89
2023/11/24 09:18:10;;;;;;;2.13;0.80;;;5.40;99.90;;;;;;5000962;28;20025;-89
2023/11/24 09:20:36;;;;;;;5.00;0.98;;;5.60;99.90;;;;;;5000780;28;20014;-87
2023/11/24 09:23:04;;;;;;;5.07;1.27;;;5.70;99.90;;;;;;5001230;28;20042;-89
2023/11/24 09:25:31;;;;;;;1.85;0.60;;;5.90;99.90;;;;;;5001542;28;20022;-90
2023/11/24 09:28:00;;;;;;;6.50;0.75;;;6.00;99.90;;;;;;5001136;28;20086;-88
2023/11/24 09:30:26;;;;;;;7.65;1.58;;;6.10;99.90;;;;;;5000493;28;20014;-91
2023/11/24 09:32:54;;;;;;;3.83;1.15;;;6.30;99.90;;;;;;5000866;28;20330;-90
2023/11/24 09:35:23;;;;;;;1.65;0.60;;;6.50;99.90;;;;;;5001195;28;20034;-88
2023/11/24 09:37:51;;;;;;;7.32;1.10;;;6.70;99.90;;;;;;5001368;28;20015;-90
2023/11/24 09:40:21;;;;;;;5.13;0.80;;;6.70;99.90;;;;;;4999907;28;20019;-89
2023/11/24 09:42:48;;;;;;;7.78;1.10;;;6.60;99.90;;;;;;5001160;28;20019;-90
2023/11/24 09:45:21;;;;;;;4.90;0.45;;;6.40;99.90;;;;;;5000871;28;20053;-91
2023/11/24 09:47:52;;;;;;;5.53;0.90;;;6.30;99.90;;;;;;5000871;28;20019;-90
2023/11/24 09:50:25;;;;;;;1.65;0.77;;;6.10;99.90;;;;;;5000518;28;20093;-89
2023/11/24 09:52:58;;;;;;;1.65;0.43;;;6.10;99.90;;;;;;4997007;28;20054;-90
2023/11/24 09:55:25;;;;;;;2.90;0.60;;;6.00;99.90;;;;;;4984590;28;20065;-90
2023/11/24 09:57:52;;;;;;;1.95;0.40;;;5.90;99.90;;;;;;4999745;28;20021;-90
2023/11/24 10:00:19;;;;;;;4.47;0.50;;;5.90;99.90;;;;;;5000336;28;20091;-91
2023/11/24 10:02:47;;;;;;;2.83;0.47;;;5.80;99.90;;;;;;5000243;28;20037;-89
2023/11/24 10:05:20;;;;;;;1.70;0.52;;;5.80;99.90;;;;;;4997885;28;20041;-91
2023/11/24 10:07:52;;;;;;;6.30;0.60;;;5.80;99.90;;;;;;5017503;28;20042;-91
2023/11/24 10:10:23;;;;;;;2.38;0.40;;;5.70;99.90;;;;;;5000628;28;20038;-90
2023/11/24 10:12:53;;;;;;;2.03;0.63;;;5.60;99.90;;;;;;5001013;28;20025;-94
2023/11/24 10:15:22;;;;;;;4.93;0.40;;;5.60;99.90;;;;;;5000555;28;20065;-92
2023/11/24 10:17:49;;;;;;;1.07;0.40;;;5.50;99.90;;;;;;5017668;28;20023;-90
2023/11/24 10:20:22;;;;;;;5.45;0.57;;;5.50;99.90;;;;;;5000233;28;20037;-91
2023/11/24 10:22:51;;;;;;;3.78;0.63;;;5.60;99.90;;;;;;5001410;28;20037;-91
2023/11/24 10:25:22;;;;;;;2.20;0.38;;;5.90;99.90;;;;;;4999680;28;20026;-93
2023/11/24 10:27:48;;;;;;;2.95;0.60;;;6.40;99.90;;;;;;4999552;28;20050;-93
2023/11/24 10:30:18;;;;;;;4.25;0.50;;;6.90;99.90;;;;;;4999085;28;20036;-96
2023/11/24 10:32:47;;;;;;;3.13;0.40;;;7.40;99.90;;;;;;4995600;28;20038;-91
2023/11/24 10:35:13;;;;;;;1.30;0.40;;;7.80;98.70;;;;;;4983273;28;20115;-91
2023/11/24 10:37:44;;;;;;;1.30;0.30;;;8.10;97.30;;;;;;4999269;28;20027;-92
2023/11/24 10:40:13;;;;;;;;;;;8.50;95.90;;;;;;4999442;28;20078;-95
2023/11/24 10:42:47;;;;;;;5.88;0.80;;;8.70;93.40;;;;;;4997400;28;19914;-91
2023/11/24 10:45:18;;;;;;;2.90;0.35;;;8.80;91.50;;;;;;4996101;28;20054;-91
2023/11/24 10:48:07;;;;;;;4.30;0.70;;;8.90;91.00;;;;;;4994541;28;20018;-90
2023/11/24 10:50:40;;;;;;;2.20;0.50;;;9.10;90.60;;;;;;4999614;28;20030;-90
2023/11/24 10:53:12;;;;;;;2.22;0.65;;;9.30;90.10;;;;;;4998182;28;20034;-93
2023/11/24 10:55:38;;;;;;;0.85;0.30;;;9.40;89.30;;;;;;4999486;28;20046;-90
2023/11/24 10:58:05;;;;;;;7.50;0.70;;;9.50;87.10;;;;;;4999878;28;20038;-88
2023/11/24 11:00:31;;;;;;;2.90;0.38;;;9.60;86.10;;;;;;4983205;28;20010;-92
2023/11/24 11:02:57;;;;;;;2.20;0.50;;;9.60;85.40;;;;;;4999389;28;20057;-93
2023/11/24 11:05:42;;;;;;;1.83;0.30;;;9.80;85.20;;;;;;4998909;28;20037;-91
2023/11/24 11:08:20;;;;;;;1.10;0.30;;;9.90;83.20;;;;;;4998043;28;20086;-91
2023/11/24 11:11:18;;;;;;;2.58;0.90;;;9.90;81.70;;;;;;4997798;28;20010;-91
2023/11/24 11:13:44;;;;;;;1.63;0.30;;;9.90;80.30;;;;;;4947817;28;20075;-91
2023/11/24 11:16:13;;;;;;;2.20;0.70;;;9.90;79.80;;;;;;4933815;29;20036;-92
2023/11/24 11:18:39;;;;;;;2.25;0.65;;;10.10;80.20;;;;;;4961301;28;20034;-91
2023/11/24 11:21:25;;;;;;;1.38;0.50;;;10.30;79.90;;;;;;4943109;28;20011;-92
2023/11/24 11:23:57;;;;;;;2.13;0.55;;;10.50;78.80;;;;;;4955148;28;20020;-91
2023/11/24 11:26:49;;;;;;;2.30;0.40;;;10.60;77.90;;;;;;4937461;28;20016;-92
2023/11/24 11:29:24;;;;;;;0.63;0.40;;;10.80;77.30;;;;;;4944210;28;20046;-92
2023/11/24 11:31:55;;;;;;;3.63;0.90;;;11.00;77.10;;;;;;4946909;28;20040;-93
2023/11/24 11:34:31;;;;;;;1.73;0.30;;;11.10;75.80;;;;;;4954679;29;20024;-94
2023/11/24 11:37:12;;;;;;;0.40;0.40;;;11.10;74.80;;;;;;4935825;29;20176;-93
2023/11/24 11:39:57;;;;;;;1.65;0.50;;;11.10;74.20;;;;;;4936196;28;20020;-95
2023/11/24 11:42:51;;;;;;;2.53;0.40;;;11.00;73.60;;;;;;4958263;29;20044;-93
2023/11/24 11:45:20;;;;;;;1.17;0.30;;;11.10;73.90;;;;;;4930454;28;20076;-94
2023/11/24 11:47:50;;;;;;;1.08;0.30;;;11.20;73.60;;;;;;4933412;29;20063;-93
2023/11/24 11:50:25;;;;;;;0.87;0.30;;;11.10;71.80;;;;;;4957730;28;20098;-96
2023/11/24 11:52:57;;;;;;;4.18;0.43;;;11.10;71.60;;;;;;5012948;28;20033;-95
2023/11/24 11:55:25;;;;;;;0.80;0.40;;;11.00;71.50;;;;;;5018887;28;20038;-93
2023/11/24 11:57:58;;;;;;;2.88;0.32;;;11.00;71.20;;;;;;5002160;28;20015;-95
2023/11/24 12:00:25;;;;;;;2.08;0.35;;;10.90;70.70;;;;;;5011243;28;20053;-91
2023/11/24 12:02:51;;;;;;;2.63;0.40;;;10.80;70.80;;;;;;5010148;28;20105;-91
2023/11/24 12:05:20;;;;;;;3.25;0.80;;;10.90;71.30;;;;;;5035476;28;20106;-92
2023/11/24 12:07:48;;;;;;;1.45;0.40;;;10.90;70.60;;;;;;4997697;28;20037;-92
2023/11/24 12:10:14;;;;;;;0.30;0.20;;;10.80;70.20;;;;;;4991257;28;20069;-94
2023/11/24 12:12:44;;;;;;;0.75;0.25;;;10.70;70.50;;;;;;4980930;28;20030;-92
2023/11/24 12:15:10;;;;;;;1.77;0.20;;;10.70;71.00;;;;;;4989625;28;20039;-93
2023/11/24 12:17:39;;;;;;;6.00;0.50;;;10.60;71.10;;;;;;4967428;28;20290;-92
2023/11/24 12:20:10;;;;;;;2.58;0.60;;;10.80;71.50;;;;;;4992687;28;20118;-92
2023/11/24 12:22:37;;;;;;;0.70;0.30;;;11.00;71.00;;;;;;5002627;28;20048;-92
2023/11/24 12:25:05;;;;;;;2.30;0.52;;;11.20;70.10;;;;;;5002372;28;20026;-91
2023/11/24 12:27:33;;;;;;;3.70;0.60;;;11.20;69.20;;;;;;5002439;28;20022;-94
2023/11/24 12:30:13;;;;;;;3.97;0.90;;;11.30;69.60;;;;;;5002651;28;20034;-92
2023/11/24 12:32:40;;;;;;;4.18;0.63;;;11.70;70.00;;;;;;5001024;28;20082;-91
2023/11/24 12:35:07;;;;;;;2.80;0.55;;;12.00;69.00;;;;;;4999327;28;20046;-91
2023/11/24 12:37:40;;;;;;;2.38;0.60;;;12.10;67.60;;;;;;4997800;28;20011;-91
2023/11/24 12:43:32;;;;;;;2.40;0.57;;;12.40;66.70;;;;;;4998677;28;20036;-90
2023/11/24 12:45:58;;;;;;;1.50;0.30;;;12.70;65.70;;;;;;4982407;28;20087;-91
2023/11/24 12:48:27;;;;;;;1.48;0.40;;;12.70;65.10;;;;;;4997826;28;20022;-90
2023/11/24 12:50:56;;;;;;;1.08;0.30;;;12.80;65.30;;;;;;5002027;28;20045;-91
2023/11/24 12:53:23;;;;;;;1.45;0.40;;;12.80;65.00;;;;;;4990242;28;20015;-89
2023/11/24 12:55:49;;;;;;;3.42;0.77;;;12.80;64.70;;;;;;4982363;28;20066;-91